sensor_id;sensor_type;location;lat;lon;timestamp;temperature;humidity
60723;DHT22;46574;52.818;6.516;2022-08-01T00:00:23;18.40;99.90
60723;DHT22;46574;52.818;6.516;2022-08-01T00:02:48;18.40;99.90
60723;DHT22;46574;52.818;6.516;2022-08-01T00:05:14;18.40;99.90
60723;DHT22;46574;52.818;6.516;2022-08-01T00:07:39;18.40;99.90
60723;DHT22;46574;52.818;6.516;2022-08-01T00:10:07;18.40;99.90
60723;DHT22;46574;52.818;6.516;2022-08-01T00:12:32;18.40;99.90
60723;DHT22;46574;52.818;6.516;2022-08-01T00:14:58;18.30;99.90
60723;DHT22;46574;52.818;6.516;2022-08-01T00:17:24;18.30;99.90
60723;DHT22;46574;52.818;6.516;2022-08-01T00:19:49;18.30;99.90
60723;DHT22;46574;52.818;6.516;2022-08-01T00:22:15;18.30;99.90
60723;DHT22;46574;52.818;6.516;2022-08-01T00:24:40;18.30;99.90
60723;DHT22;46574;52.818;6.516;2022-08-01T00:27:06;18.30;99.90
60723;DHT22;46574;52.818;6.516;2022-08-01T00:29:31;18.30;99.90
60723;DHT22;46574;52.818;6.516;2022-08-01T00:31:57;18.30;99.90
60723;DHT22;46574;52.818;6.516;2022-08-01T00:34:22;18.30;99.90
60723;DHT22;46574;52.818;6.516;2022-08-01T00:36:48;18.30;99.90
60723;DHT22;46574;52.818;6.516;2022-08-01T00:39:13;18.30;99.90
60723;DHT22;46574;52.818;6.516;2022-08-01T00:41:39;18.30;99.90
60723;DHT22;46574;52.818;6.516;2022-08-01T00:44:04;18.30;99.90
60723;DHT22;46574;52.818;6.516;2022-08-01T00:46:31;18.30;99.90
60723;DHT22;46574;52.818;6.516;2022-08-01T00:48:57;18.30;99.90
60723;DHT22;46574;52.818;6.516;2022-08-01T00:51:22;18.30;99.90
60723;DHT22;46574;52.818;6.516;2022-08-01T00:53:48;18.30;99.90
60723;DHT22;46574;52.818;6.516;2022-08-01T00:56:14;18.20;99.90
60723;DHT22;46574;52.818;6.516;2022-08-01T00:58:39;18.20;99.90
60723;DHT22;46574;52.818;6.516;2022-08-01T01:01:05;18.20;99.90
60723;DHT22;46574;52.818;6.516;2022-08-01T01:03:30;18.10;99.90
60723;DHT22;46574;52.818;6.516;2022-08-01T01:08:27;18.10;99.90
60723;DHT22;46574;52.818;6.516;2022-08-01T01:11:01;18.10;99.90
60723;DHT22;46574;52.818;6.516;2022-08-01T01:13:38;18.10;99.90
60723;DHT22;46574;52.818;6.516;2022-08-01T01:16:06;18.10;99.90
60723;DHT22;46574;52.818;6.516;2022-08-01T01:31:27;18.10;99.90
60723;DHT22;46574;52.818;6.516;2022-08-01T01:33:53;18.10;99.90
60723;DHT22;46574;52.818;6.516;2022-08-01T01:36:21;18.10;99.90
60723;DHT22;46574;52.818;6.516;2022-08-01T01:38:49;18.10;99.90
60723;DHT22;46574;52.818;6.516;2022-08-01T01:41:16;18.10;99.90
60723;DHT22;46574;52.818;6.516;2022-08-01T01:43:42;18.10;99.90
60723;DHT22;46574;52.818;6.516;2022-08-01T01:46:09;18.10;99.90
60723;DHT22;46574;52.818;6.516;2022-08-01T01:48:34;18.10;99.90
60723;DHT22;46574;52.818;6.516;2022-08-01T01:51:00;18.10;99.90
60723;DHT22;46574;52.818;6.516;2022-08-01T01:53:26;18.10;99.90
60723;DHT22;46574;52.818;6.516;2022-08-01T01:55:53;18.10;99.90
60723;DHT22;46574;52.818;6.516;2022-08-01T01:58:19;18.10;99.90
60723;DHT22;46574;52.818;6.516;2022-08-01T02:00:46;18.10;99.90
60723;DHT22;46574;52.818;6.516;2022-08-01T02:03:14;18.00;99.90
60723;DHT22;46574;52.818;6.516;2022-08-01T02:05:41;18.00;99.90
60723;DHT22;46574;52.818;6.516;2022-08-01T02:08:07;18.00;99.90
60723;DHT22;46574;52.818;6.516;2022-08-01T02:10:35;17.90;99.90
60723;DHT22;46574;52.818;6.516;2022-08-01T02:13:02;17.90;99.90
60723;DHT22;46574;52.818;6.516;2022-08-01T02:15:29;17.90;99.90
60723;DHT22;46574;52.818;6.516;2022-08-01T02:17:54;17.90;99.90
60723;DHT22;46574;52.818;6.516;2022-08-01T02:20:21;17.90;99.90
60723;DHT22;46574;52.818;6.516;2022-08-01T02:22:49;17.90;99.90
60723;DHT22;46574;52.818;6.516;2022-08-01T02:25:23;17.90;99.90
60723;DHT22;46574;52.818;6.516;2022-08-01T02:28:07;17.90;99.90
60723;DHT22;46574;52.818;6.516;2022-08-01T02:30:34;17.90;99.90
60723;DHT22;46574;52.818;6.516;2022-08-01T02:35:33;17.90;99.90
60723;DHT22;46574;52.818;6.516;2022-08-01T02:38:01;17.90;99.90
60723;DHT22;46574;52.818;6.516;2022-08-01T02:40:27;17.90;99.90
60723;DHT22;46574;52.818;6.516;2022-08-01T02:42:54;17.90;99.90
60723;DHT22;46574;52.818;6.516;2022-08-01T02:45:22;17.90;99.90
60723;DHT22;46574;52.818;6.516;2022-08-01T02:47:49;17.90;99.90
60723;DHT22;46574;52.818;6.516;2022-08-01T02:50:15;17.90;99.90
60723;DHT22;46574;52.818;6.516;2022-08-01T02:52:42;17.90;99.90
60723;DHT22;46574;52.818;6.516;2022-08-01T02:55:09;17.90;99.90
60723;DHT22;46574;52.818;6.516;2022-08-01T02:57:35;17.90;99.90
60723;DHT22;46574;52.818;6.516;2022-08-01T03:00:03;17.90;99.90
60723;DHT22;46574;52.818;6.516;2022-08-01T03:02:29;17.90;99.90
60723;DHT22;46574;52.818;6.516;2022-08-01T03:04:56;17.90;99.90
60723;DHT22;46574;52.818;6.516;2022-08-01T03:07:22;17.80;99.90
60723;DHT22;46574;52.818;6.516;2022-08-01T03:09:49;17.80;99.90
60723;DHT22;46574;52.818;6.516;2022-08-01T03:12:17;17.70;99.90
60723;DHT22;46574;52.818;6.516;2022-08-01T03:14:44;17.70;99.90
60723;DHT22;46574;52.818;6.516;2022-08-01T03:17:11;17.60;99.90
60723;DHT22;46574;52.818;6.516;2022-08-01T03:19:37;17.60;99.90
60723;DHT22;46574;52.818;6.516;2022-08-01T03:22:05;17.60;99.90
60723;DHT22;46574;52.818;6.516;2022-08-01T03:24:31;17.70;99.90
60723;DHT22;46574;52.818;6.516;2022-08-01T03:26:58;17.60;99.90
60723;DHT22;46574;52.818;6.516;2022-08-01T03:29:25;17.60;99.90
60723;DHT22;46574;52.818;6.516;2022-08-01T03:31:51;17.60;99.90
60723;DHT22;46574;52.818;6.516;2022-08-01T03:34:17;17.60;99.90
60723;DHT22;46574;52.818;6.516;2022-08-01T03:36:47;17.60;99.90
60723;DHT22;46574;52.818;6.516;2022-08-01T03:39:13;17.60;99.90
60723;DHT22;46574;52.818;6.516;2022-08-01T03:41:40;17.60;99.90
60723;DHT22;46574;52.818;6.516;2022-08-01T03:44:16;17.60;99.90
60723;DHT22;46574;52.818;6.516;2022-08-01T03:46:54;17.60;99.90
60723;DHT22;46574;52.818;6.516;2022-08-01T03:49:23;17.60;99.90
60723;DHT22;46574;52.818;6.516;2022-08-01T03:51:49;17.50;99.90
60723;DHT22;46574;52.818;6.516;2022-08-01T03:54:16;17.50;99.90
60723;DHT22;46574;52.818;6.516;2022-08-01T03:56:42;17.50;99.90
60723;DHT22;46574;52.818;6.516;2022-08-01T03:59:08;17.40;99.90
60723;DHT22;46574;52.818;6.516;2022-08-01T04:01:34;17.40;99.90
60723;DHT22;46574;52.818;6.516;2022-08-01T04:04:00;17.40;99.90
60723;DHT22;46574;52.818;6.516;2022-08-01T04:06:25;17.40;99.90
60723;DHT22;46574;52.818;6.516;2022-08-01T04:08:51;17.40;99.90
60723;DHT22;46574;52.818;6.516;2022-08-01T04:11:23;17.40;99.90
60723;DHT22;46574;52.818;6.516;2022-08-01T04:13:49;17.40;99.90
60723;DHT22;46574;52.818;6.516;2022-08-01T04:16:15;17.40;99.90
60723;DHT22;46574;52.818;6.516;2022-08-01T04:18:41;17.40;99.90
60723;DHT22;46574;52.818;6.516;2022-08-01T04:21:07;17.40;99.90
60723;DHT22;46574;52.818;6.516;2022-08-01T04:23:32;17.40;99.90
60723;DHT22;46574;52.818;6.516;2022-08-01T04:26:00;17.40;99.90
60723;DHT22;46574;52.818;6.516;2022-08-01T04:28:29;17.30;99.90
60723;DHT22;46574;52.818;6.516;2022-08-01T04:30:55;17.30;99.90
60723;DHT22;46574;52.818;6.516;2022-08-01T04:33:22;17.30;99.90
60723;DHT22;46574;52.818;6.516;2022-08-01T04:35:48;17.40;99.90
60723;DHT22;46574;52.818;6.516;2022-08-01T04:38:16;17.30;99.90
60723;DHT22;46574;52.818;6.516;2022-08-01T04:40:44;17.30;99.90
60723;DHT22;46574;52.818;6.516;2022-08-01T04:43:10;17.30;99.90
60723;DHT22;46574;52.818;6.516;2022-08-01T04:45:36;17.30;99.90
60723;DHT22;46574;52.818;6.516;2022-08-01T04:48:02;17.30;99.90
60723;DHT22;46574;52.818;6.516;2022-08-01T04:50:31;17.30;99.90
60723;DHT22;46574;52.818;6.516;2022-08-01T04:52:57;17.30;99.90
60723;DHT22;46574;52.818;6.516;2022-08-01T04:55:23;17.30;99.90
60723;DHT22;46574;52.818;6.516;2022-08-01T04:57:48;17.30;99.90
60723;DHT22;46574;52.818;6.516;2022-08-01T05:00:14;17.30;99.90
60723;DHT22;46574;52.818;6.516;2022-08-01T05:02:41;17.30;99.90
60723;DHT22;46574;52.818;6.516;2022-08-01T05:05:07;17.30;99.90
60723;DHT22;46574;52.818;6.516;2022-08-01T05:07:33;17.30;99.90
60723;DHT22;46574;52.818;6.516;2022-08-01T05:10:02;17.30;99.90
60723;DHT22;46574;52.818;6.516;2022-08-01T05:12:28;17.30;99.90
60723;DHT22;46574;52.818;6.516;2022-08-01T05:14:54;17.20;99.90
60723;DHT22;46574;52.818;6.516;2022-08-01T05:17:19;17.20;99.90
60723;DHT22;46574;52.818;6.516;2022-08-01T05:19:45;17.20;99.90
60723;DHT22;46574;52.818;6.516;2022-08-01T05:22:11;17.20;99.90
60723;DHT22;46574;52.818;6.516;2022-08-01T05:24:37;17.20;99.90
60723;DHT22;46574;52.818;6.516;2022-08-01T05:27:03;17.20;99.90
60723;DHT22;46574;52.818;6.516;2022-08-01T05:29:29;17.20;99.90
60723;DHT22;46574;52.818;6.516;2022-08-01T05:31:55;17.20;99.90
60723;DHT22;46574;52.818;6.516;2022-08-01T05:34:21;17.20;99.90
60723;DHT22;46574;52.818;6.516;2022-08-01T05:36:47;17.20;99.90
60723;DHT22;46574;52.818;6.516;2022-08-01T05:39:13;17.20;99.90
60723;DHT22;46574;52.818;6.516;2022-08-01T05:41:39;17.20;99.90
60723;DHT22;46574;52.818;6.516;2022-08-01T05:44:04;17.20;99.90
60723;DHT22;46574;52.818;6.516;2022-08-01T05:46:30;17.30;99.90
60723;DHT22;46574;52.818;6.516;2022-08-01T05:48:56;17.30;99.90
60723;DHT22;46574;52.818;6.516;2022-08-01T05:51:22;17.30;99.90
60723;DHT22;46574;52.818;6.516;2022-08-01T05:53:48;17.40;99.90
60723;DHT22;46574;52.818;6.516;2022-08-01T05:56:14;17.40;99.90
60723;DHT22;46574;52.818;6.516;2022-08-01T05:58:39;17.40;99.90
60723;DHT22;46574;52.818;6.516;2022-08-01T06:01:05;17.40;99.90
60723;DHT22;46574;52.818;6.516;2022-08-01T06:03:30;17.30;99.90
60723;DHT22;46574;52.818;6.516;2022-08-01T06:05:58;17.40;99.90
60723;DHT22;46574;52.818;6.516;2022-08-01T06:08:24;17.40;99.90
60723;DHT22;46574;52.818;6.516;2022-08-01T06:10:50;17.40;99.90
60723;DHT22;46574;52.818;6.516;2022-08-01T06:13:15;17.40;99.90
60723;DHT22;46574;52.818;6.516;2022-08-01T06:15:41;17.40;99.90
60723;DHT22;46574;52.818;6.516;2022-08-01T06:18:07;17.40;99.90
60723;DHT22;46574;52.818;6.516;2022-08-01T06:20:32;17.40;99.90
60723;DHT22;46574;52.818;6.516;2022-08-01T06:22:58;17.20;99.90
60723;DHT22;46574;52.818;6.516;2022-08-01T06:25:24;17.20;99.90
60723;DHT22;46574;52.818;6.516;2022-08-01T06:27:49;17.20;99.90
60723;DHT22;46574;52.818;6.516;2022-08-01T06:30:15;17.20;99.90
60723;DHT22;46574;52.818;6.516;2022-08-01T06:32:40;17.30;99.90
60723;DHT22;46574;52.818;6.516;2022-08-01T06:35:06;17.40;99.90
60723;DHT22;46574;52.818;6.516;2022-08-01T06:37:32;17.40;99.90
60723;DHT22;46574;52.818;6.516;2022-08-01T06:40:04;17.40;99.90
60723;DHT22;46574;52.818;6.516;2022-08-01T06:42:30;17.40;99.90
60723;DHT22;46574;52.818;6.516;2022-08-01T06:45:02;17.30;99.90
60723;DHT22;46574;52.818;6.516;2022-08-01T06:47:27;17.30;99.90
60723;DHT22;46574;52.818;6.516;2022-08-01T06:49:53;17.40;99.90
60723;DHT22;46574;52.818;6.516;2022-08-01T06:52:19;17.30;99.90
60723;DHT22;46574;52.818;6.516;2022-08-01T06:54:44;17.20;99.90
60723;DHT22;46574;52.818;6.516;2022-08-01T06:57:10;17.10;99.90
60723;DHT22;46574;52.818;6.516;2022-08-01T06:59:35;17.10;99.90
60723;DHT22;46574;52.818;6.516;2022-08-01T07:02:01;17.10;99.90
60723;DHT22;46574;52.818;6.516;2022-08-01T07:04:26;17.10;99.90
60723;DHT22;46574;52.818;6.516;2022-08-01T07:06:52;17.10;99.90
60723;DHT22;46574;52.818;6.516;2022-08-01T07:09:17;17.10;99.90
60723;DHT22;46574;52.818;6.516;2022-08-01T07:11:43;17.10;99.90
60723;DHT22;46574;52.818;6.516;2022-08-01T07:14:08;17.00;99.90
60723;DHT22;46574;52.818;6.516;2022-08-01T07:16:34;17.10;99.90
60723;DHT22;46574;52.818;6.516;2022-08-01T07:19:00;17.10;99.90
60723;DHT22;46574;52.818;6.516;2022-08-01T07:21:25;17.20;99.90
60723;DHT22;46574;52.818;6.516;2022-08-01T07:23:51;17.20;99.90
60723;DHT22;46574;52.818;6.516;2022-08-01T07:26:16;17.20;99.90
60723;DHT22;46574;52.818;6.516;2022-08-01T07:28:42;17.20;99.90
60723;DHT22;46574;52.818;6.516;2022-08-01T07:31:08;17.30;99.90
60723;DHT22;46574;52.818;6.516;2022-08-01T07:33:33;17.40;99.90
60723;DHT22;46574;52.818;6.516;2022-08-01T07:35:59;17.30;99.90
60723;DHT22;46574;52.818;6.516;2022-08-01T07:38:24;17.30;99.90
60723;DHT22;46574;52.818;6.516;2022-08-01T07:40:50;17.40;99.90
60723;DHT22;46574;52.818;6.516;2022-08-01T07:43:15;17.50;99.90
60723;DHT22;46574;52.818;6.516;2022-08-01T07:45:41;17.50;99.90
60723;DHT22;46574;52.818;6.516;2022-08-01T07:48:07;17.60;99.90
60723;DHT22;46574;52.818;6.516;2022-08-01T07:50:32;17.60;99.90
60723;DHT22;46574;52.818;6.516;2022-08-01T07:52:58;17.60;99.90
60723;DHT22;46574;52.818;6.516;2022-08-01T07:55:24;17.60;99.90
60723;DHT22;46574;52.818;6.516;2022-08-01T07:57:50;17.60;99.90
60723;DHT22;46574;52.818;6.516;2022-08-01T08:00:16;17.70;99.90
60723;DHT22;46574;52.818;6.516;2022-08-01T08:02:41;17.60;99.90
60723;DHT22;46574;52.818;6.516;2022-08-01T08:05:07;17.60;99.90
60723;DHT22;46574;52.818;6.516;2022-08-01T08:07:33;17.70;99.90
60723;DHT22;46574;52.818;6.516;2022-08-01T08:09:58;17.70;99.90
60723;DHT22;46574;52.818;6.516;2022-08-01T08:12:24;17.90;99.90
60723;DHT22;46574;52.818;6.516;2022-08-01T08:14:49;17.80;99.90
60723;DHT22;46574;52.818;6.516;2022-08-01T08:17:15;17.90;99.90
60723;DHT22;46574;52.818;6.516;2022-08-01T08:19:40;18.00;99.90
60723;DHT22;46574;52.818;6.516;2022-08-01T08:22:07;18.00;99.90
60723;DHT22;46574;52.818;6.516;2022-08-01T08:24:33;18.00;99.90
60723;DHT22;46574;52.818;6.516;2022-08-01T08:26:59;17.90;99.90
60723;DHT22;46574;52.818;6.516;2022-08-01T08:29:25;18.00;99.90
60723;DHT22;46574;52.818;6.516;2022-08-01T08:31:51;17.90;99.90
60723;DHT22;46574;52.818;6.516;2022-08-01T08:34:17;17.80;99.90
60723;DHT22;46574;52.818;6.516;2022-08-01T08:36:43;17.90;99.90
60723;DHT22;46574;52.818;6.516;2022-08-01T08:39:08;18.00;99.90
60723;DHT22;46574;52.818;6.516;2022-08-01T08:41:34;18.00;99.90
60723;DHT22;46574;52.818;6.516;2022-08-01T08:44:00;18.10;99.90
60723;DHT22;46574;52.818;6.516;2022-08-01T08:46:26;18.10;99.90
60723;DHT22;46574;52.818;6.516;2022-08-01T08:48:52;18.10;99.90
60723;DHT22;46574;52.818;6.516;2022-08-01T08:51:18;18.20;99.90
60723;DHT22;46574;52.818;6.516;2022-08-01T08:53:44;18.30;99.90
60723;DHT22;46574;52.818;6.516;2022-08-01T08:56:11;18.30;99.90
60723;DHT22;46574;52.818;6.516;2022-08-01T08:58:38;18.30;99.90
60723;DHT22;46574;52.818;6.516;2022-08-01T09:01:07;18.50;99.90
60723;DHT22;46574;52.818;6.516;2022-08-01T09:03:35;18.70;99.90
60723;DHT22;46574;52.818;6.516;2022-08-01T09:06:01;19.00;99.90
60723;DHT22;46574;52.818;6.516;2022-08-01T09:08:27;19.20;99.90
60723;DHT22;46574;52.818;6.516;2022-08-01T09:10:52;19.20;99.90
60723;DHT22;46574;52.818;6.516;2022-08-01T09:13:18;19.00;99.90
60723;DHT22;46574;52.818;6.516;2022-08-01T09:15:44;19.10;99.90
60723;DHT22;46574;52.818;6.516;2022-08-01T09:23:36;19.70;99.90
60723;DHT22;46574;52.818;6.516;2022-08-01T09:26:11;19.70;99.90
60723;DHT22;46574;52.818;6.516;2022-08-01T09:28:37;19.70;99.90
60723;DHT22;46574;52.818;6.516;2022-08-01T09:31:07;19.80;99.90
60723;DHT22;46574;52.818;6.516;2022-08-01T09:36:13;19.90;99.90
60723;DHT22;46574;52.818;6.516;2022-08-01T09:38:39;20.00;99.90
60723;DHT22;46574;52.818;6.516;2022-08-01T09:41:04;19.90;99.90
60723;DHT22;46574;52.818;6.516;2022-08-01T09:43:30;19.80;99.90
60723;DHT22;46574;52.818;6.516;2022-08-01T09:45:56;19.60;99.90
60723;DHT22;46574;52.818;6.516;2022-08-01T09:48:22;19.50;99.90
60723;DHT22;46574;52.818;6.516;2022-08-01T09:50:48;19.60;99.90
60723;DHT22;46574;52.818;6.516;2022-08-01T09:53:14;19.80;99.90
60723;DHT22;46574;52.818;6.516;2022-08-01T09:55:40;19.80;99.90
60723;DHT22;46574;52.818;6.516;2022-08-01T09:58:06;19.90;99.90
60723;DHT22;46574;52.818;6.516;2022-08-01T10:00:32;19.80;99.90
60723;DHT22;46574;52.818;6.516;2022-08-01T10:02:58;20.00;99.90
60723;DHT22;46574;52.818;6.516;2022-08-01T10:05:34;20.10;99.90
60723;DHT22;46574;52.818;6.516;2022-08-01T10:08:00;20.10;99.90
60723;DHT22;46574;52.818;6.516;2022-08-01T10:10:27;20.20;99.90
60723;DHT22;46574;52.818;6.516;2022-08-01T10:12:52;20.30;99.90
60723;DHT22;46574;52.818;6.516;2022-08-01T10:15:20;20.10;99.90
60723;DHT22;46574;52.818;6.516;2022-08-01T10:17:51;19.90;99.90
60723;DHT22;46574;52.818;6.516;2022-08-01T10:20:22;20.00;99.90
60723;DHT22;46574;52.818;6.516;2022-08-01T10:22:49;19.90;99.90
60723;DHT22;46574;52.818;6.516;2022-08-01T10:25:14;19.90;99.90
60723;DHT22;46574;52.818;6.516;2022-08-01T10:27:43;20.00;99.90
60723;DHT22;46574;52.818;6.516;2022-08-01T10:30:12;20.10;99.90
60723;DHT22;46574;52.818;6.516;2022-08-01T10:32:38;20.20;99.90
60723;DHT22;46574;52.818;6.516;2022-08-01T10:35:05;20.10;99.90
60723;DHT22;46574;52.818;6.516;2022-08-01T10:37:30;20.20;99.90
60723;DHT22;46574;52.818;6.516;2022-08-01T10:39:58;20.30;99.90
60723;DHT22;46574;52.818;6.516;2022-08-01T10:42:24;20.30;99.90
60723;DHT22;46574;52.818;6.516;2022-08-01T10:44:50;20.50;99.90
60723;DHT22;46574;52.818;6.516;2022-08-01T10:47:27;20.80;99.90
60723;DHT22;46574;52.818;6.516;2022-08-01T10:49:59;20.80;99.90
60723;DHT22;46574;52.818;6.516;2022-08-01T10:52:27;20.70;99.90
60723;DHT22;46574;52.818;6.516;2022-08-01T10:55:06;20.60;99.90
60723;DHT22;46574;52.818;6.516;2022-08-01T10:57:44;20.50;99.90
60723;DHT22;46574;52.818;6.516;2022-08-01T11:00:16;20.70;99.90
60723;DHT22;46574;52.818;6.516;2022-08-01T11:02:42;20.70;99.90
60723;DHT22;46574;52.818;6.516;2022-08-01T11:05:21;20.70;99.90
60723;DHT22;46574;52.818;6.516;2022-08-01T11:07:48;20.70;99.90
60723;DHT22;46574;52.818;6.516;2022-08-01T11:12:59;20.70;99.90
60723;DHT22;46574;52.818;6.516;2022-08-01T11:15:27;20.60;99.90
60723;DHT22;46574;52.818;6.516;2022-08-01T11:17:54;20.60;99.90
60723;DHT22;46574;52.818;6.516;2022-08-01T11:30:42;20.70;99.90
60723;DHT22;46574;52.818;6.516;2022-08-01T11:33:09;20.70;99.90
60723;DHT22;46574;52.818;6.516;2022-08-01T11:35:35;20.70;99.90
60723;DHT22;46574;52.818;6.516;2022-08-01T11:40:45;20.90;99.90
60723;DHT22;46574;52.818;6.516;2022-08-01T11:45:50;20.90;99.90
60723;DHT22;46574;52.818;6.516;2022-08-01T11:48:19;20.90;99.90
60723;DHT22;46574;52.818;6.516;2022-08-01T11:50:45;20.90;99.90
60723;DHT22;46574;52.818;6.516;2022-08-01T11:53:11;20.90;99.90
60723;DHT22;46574;52.818;6.516;2022-08-01T11:55:46;21.00;99.90
60723;DHT22;46574;52.818;6.516;2022-08-01T11:58:13;21.00;95.30
60723;DHT22;46574;52.818;6.516;2022-08-01T12:00:39;21.00;99.90
60723;DHT22;46574;52.818;6.516;2022-08-01T12:03:05;21.00;97.80
60723;DHT22;46574;52.818;6.516;2022-08-01T12:05:32;21.00;96.40
60723;DHT22;46574;52.818;6.516;2022-08-01T12:07:59;20.80;84.70
60723;DHT22;46574;52.818;6.516;2022-08-01T12:10:25;20.80;97.70
60723;DHT22;46574;52.818;6.516;2022-08-01T12:12:52;20.80;88.50
60723;DHT22;46574;52.818;6.516;2022-08-01T12:15:19;21.00;92.60
60723;DHT22;46574;52.818;6.516;2022-08-01T12:17:46;21.00;96.10
60723;DHT22;46574;52.818;6.516;2022-08-01T12:20:13;21.00;98.80
60723;DHT22;46574;52.818;6.516;2022-08-01T12:22:39;21.10;99.90
60723;DHT22;46574;52.818;6.516;2022-08-01T12:25:09;21.20;96.00
60723;DHT22;46574;52.818;6.516;2022-08-01T12:27:35;21.10;99.90
60723;DHT22;46574;52.818;6.516;2022-08-01T12:30:01;21.00;98.80
60723;DHT22;46574;52.818;6.516;2022-08-01T12:32:33;20.90;98.00
60723;DHT22;46574;52.818;6.516;2022-08-01T12:35:03;21.00;99.90
60723;DHT22;46574;52.818;6.516;2022-08-01T12:37:29;21.30;99.90
60723;DHT22;46574;52.818;6.516;2022-08-01T12:39:55;21.40;98.40
60723;DHT22;46574;52.818;6.516;2022-08-01T12:42:21;21.10;98.70
60723;DHT22;46574;52.818;6.516;2022-08-01T12:44:48;21.00;97.70
60723;DHT22;46574;52.818;6.516;2022-08-01T12:47:14;21.00;99.90
60723;DHT22;46574;52.818;6.516;2022-08-01T12:49:41;21.00;99.40
60723;DHT22;46574;52.818;6.516;2022-08-01T12:52:07;21.10;91.00
60723;DHT22;46574;52.818;6.516;2022-08-01T12:57:23;21.40;97.40
60723;DHT22;46574;52.818;6.516;2022-08-01T12:59:52;21.30;92.60
60723;DHT22;46574;52.818;6.516;2022-08-01T13:02:17;21.10;90.60
60723;DHT22;46574;52.818;6.516;2022-08-01T13:04:50;21.00;86.50
60723;DHT22;46574;52.818;6.516;2022-08-01T13:07:18;21.10;98.10
60723;DHT22;46574;52.818;6.516;2022-08-01T13:09:52;21.30;90.00
60723;DHT22;46574;52.818;6.516;2022-08-01T13:12:17;21.40;79.30
60723;DHT22;46574;52.818;6.516;2022-08-01T13:14:43;21.30;88.60
60723;DHT22;46574;52.818;6.516;2022-08-01T13:17:09;21.10;90.50
60723;DHT22;46574;52.818;6.516;2022-08-01T13:19:44;21.20;93.00
60723;DHT22;46574;52.818;6.516;2022-08-01T13:22:09;21.40;92.90
60723;DHT22;46574;52.818;6.516;2022-08-01T13:24:35;21.40;82.50
60723;DHT22;46574;52.818;6.516;2022-08-01T13:27:02;21.40;81.60
60723;DHT22;46574;52.818;6.516;2022-08-01T13:29:32;21.40;73.30
60723;DHT22;46574;52.818;6.516;2022-08-01T13:31:58;21.40;77.40
60723;DHT22;46574;52.818;6.516;2022-08-01T13:34:31;21.50;70.30
60723;DHT22;46574;52.818;6.516;2022-08-01T13:36:56;21.40;71.50
60723;DHT22;46574;52.818;6.516;2022-08-01T13:39:22;21.50;82.50
60723;DHT22;46574;52.818;6.516;2022-08-01T13:42:10;21.60;70.10
60723;DHT22;46574;52.818;6.516;2022-08-01T13:44:36;21.60;65.80
60723;DHT22;46574;52.818;6.516;2022-08-01T13:47:02;21.50;65.20
60723;DHT22;46574;52.818;6.516;2022-08-01T13:49:28;21.50;90.30
60723;DHT22;46574;52.818;6.516;2022-08-01T13:51:53;21.90;72.60
60723;DHT22;46574;52.818;6.516;2022-08-01T13:54:19;22.00;70.20
60723;DHT22;46574;52.818;6.516;2022-08-01T13:56:44;21.90;65.80
60723;DHT22;46574;52.818;6.516;2022-08-01T13:59:10;21.80;63.70
60723;DHT22;46574;52.818;6.516;2022-08-01T14:01:35;21.80;66.20
60723;DHT22;46574;52.818;6.516;2022-08-01T14:04:01;21.90;66.80
60723;DHT22;46574;52.818;6.516;2022-08-01T14:06:27;22.00;69.70
60723;DHT22;46574;52.818;6.516;2022-08-01T14:08:53;22.20;63.70
60723;DHT22;46574;52.818;6.516;2022-08-01T14:11:18;22.30;60.90
60723;DHT22;46574;52.818;6.516;2022-08-01T14:13:44;22.30;61.70
60723;DHT22;46574;52.818;6.516;2022-08-01T14:16:10;22.20;62.00
60723;DHT22;46574;52.818;6.516;2022-08-01T14:18:36;22.20;65.00
60723;DHT22;46574;52.818;6.516;2022-08-01T14:21:01;22.20;61.50
60723;DHT22;46574;52.818;6.516;2022-08-01T14:23:27;22.40;64.80
60723;DHT22;46574;52.818;6.516;2022-08-01T14:25:52;22.60;61.40
60723;DHT22;46574;52.818;6.516;2022-08-01T14:28:18;22.50;63.00
60723;DHT22;46574;52.818;6.516;2022-08-01T14:30:43;22.50;63.80
60723;DHT22;46574;52.818;6.516;2022-08-01T14:33:10;22.60;63.40
60723;DHT22;46574;52.818;6.516;2022-08-01T14:35:35;22.60;60.00
60723;DHT22;46574;52.818;6.516;2022-08-01T14:38:01;22.60;62.20
60723;DHT22;46574;52.818;6.516;2022-08-01T14:40:27;22.50;62.40
60723;DHT22;46574;52.818;6.516;2022-08-01T14:42:52;22.10;61.40
60723;DHT22;46574;52.818;6.516;2022-08-01T14:45:18;21.90;62.50
60723;DHT22;46574;52.818;6.516;2022-08-01T14:47:44;22.00;61.60
60723;DHT22;46574;52.818;6.516;2022-08-01T14:50:11;22.10;61.00
60723;DHT22;46574;52.818;6.516;2022-08-01T14:52:37;22.10;65.10
60723;DHT22;46574;52.818;6.516;2022-08-01T14:55:04;22.20;65.90
60723;DHT22;46574;52.818;6.516;2022-08-01T14:57:30;22.10;63.50
60723;DHT22;46574;52.818;6.516;2022-08-01T14:59:55;21.80;63.60
60723;DHT22;46574;52.818;6.516;2022-08-01T15:02:21;21.70;64.50
60723;DHT22;46574;52.818;6.516;2022-08-01T15:04:46;21.80;64.50
60723;DHT22;46574;52.818;6.516;2022-08-01T15:07:13;22.10;63.60
60723;DHT22;46574;52.818;6.516;2022-08-01T15:09:38;22.30;63.60
60723;DHT22;46574;52.818;6.516;2022-08-01T15:12:04;22.30;62.90
60723;DHT22;46574;52.818;6.516;2022-08-01T15:14:30;22.10;64.40
60723;DHT22;46574;52.818;6.516;2022-08-01T15:17:14;22.20;60.80
60723;DHT22;46574;52.818;6.516;2022-08-01T15:19:43;22.50;63.80
60723;DHT22;46574;52.818;6.516;2022-08-01T15:22:09;22.70;61.30
60723;DHT22;46574;52.818;6.516;2022-08-01T15:24:35;22.90;60.50
60723;DHT22;46574;52.818;6.516;2022-08-01T15:27:00;23.10;59.30
60723;DHT22;46574;52.818;6.516;2022-08-01T15:29:26;22.90;57.90
60723;DHT22;46574;52.818;6.516;2022-08-01T15:31:51;22.90;59.60
60723;DHT22;46574;52.818;6.516;2022-08-01T15:34:17;23.10;61.00
60723;DHT22;46574;52.818;6.516;2022-08-01T15:36:43;23.30;58.20
60723;DHT22;46574;52.818;6.516;2022-08-01T15:39:09;23.50;56.20
60723;DHT22;46574;52.818;6.516;2022-08-01T15:41:34;23.90;58.80
60723;DHT22;46574;52.818;6.516;2022-08-01T15:44:03;24.40;56.80
60723;DHT22;46574;52.818;6.516;2022-08-01T15:46:28;25.30;57.20
60723;DHT22;46574;52.818;6.516;2022-08-01T15:48:54;25.30;54.70
60723;DHT22;46574;52.818;6.516;2022-08-01T15:51:20;25.30;54.80
60723;DHT22;46574;52.818;6.516;2022-08-01T15:53:45;25.30;53.80
60723;DHT22;46574;52.818;6.516;2022-08-01T15:56:12;25.70;51.40
60723;DHT22;46574;52.818;6.516;2022-08-01T15:58:37;25.80;51.50
60723;DHT22;46574;52.818;6.516;2022-08-01T16:01:03;25.30;52.40
60723;DHT22;46574;52.818;6.516;2022-08-01T16:03:28;24.80;52.80
60723;DHT22;46574;52.818;6.516;2022-08-01T16:05:54;24.10;53.80
60723;DHT22;46574;52.818;6.516;2022-08-01T16:08:19;23.90;52.20
60723;DHT22;46574;52.818;6.516;2022-08-01T16:10:45;23.70;53.40
60723;DHT22;46574;52.818;6.516;2022-08-01T16:13:11;23.80;55.40